Terminal Aerodrome Forecast
Issued by NWS

Home | Current Version | Previous Version | Text Only | Print | Product List | Glossary On
Versions: 1 2 3 4 5 6 7 8 9 10 11 12 13 14 15 16 17
000
FTUS41 KPHI 030524
TAFMIV
TAF
KMIV 030524Z 0306/0406 VRB03KT 4SM BR SKC
      TEMPO 0308/0312 2SM BR BKN002
     FM031300 35004KT P6SM SCT250
     FM031800 30006KT P6SM SCT045
     FM032300 VRB03KT P6SM SCT045
     FM040300 VRB03KT 5SM BR SCT045=

USA.gov is the U.S. government's official web portal to all federal, state and local government web resources and services.